sensor_id;sensor_type;location;lat;lon;timestamp;P1;durP1;ratioP1;P2;durP2;ratioP2
22752;SDS011;11543;43.144;24.684;2023-05-07T00:01:24;6.93;;;4.63;;
22752;SDS011;11543;43.144;24.684;2023-05-07T00:03:51;8.52;;;4.63;;
22752;SDS011;11543;43.144;24.684;2023-05-07T00:06:31;8.82;;;4.72;;
22752;SDS011;11543;43.144;24.684;2023-05-07T06:01:10;6.95;;;5.00;;
22752;SDS011;11543;43.144;24.684;2023-05-07T06:13:59;7.82;;;4.90;;
22752;SDS011;11543;43.144;24.684;2023-05-07T06:16:25;7.63;;;4.70;;
22752;SDS011;11543;43.144;24.684;2023-05-07T06:19:02;8.02;;;4.82;;
22752;SDS011;11543;43.144;24.684;2023-05-07T06:21:27;11.23;;;5.05;;
22752;SDS011;11543;43.144;24.684;2023-05-07T06:23:53;7.25;;;4.55;;
22752;SDS011;11543;43.144;24.684;2023-05-07T06:26:20;7.68;;;4.88;;
22752;SDS011;11543;43.144;24.684;2023-05-07T06:28:48;5.88;;;4.50;;
22752;SDS011;11543;43.144;24.684;2023-05-07T06:31:18;6.15;;;4.25;;
22752;SDS011;11543;43.144;24.684;2023-05-07T06:33:48;5.63;;;3.92;;
22752;SDS011;11543;43.144;24.684;2023-05-07T06:36:14;8.02;;;4.40;;
22752;SDS011;11543;43.144;24.684;2023-05-07T06:38:49;7.43;;;3.78;;
22752;SDS011;11543;43.144;24.684;2023-05-07T06:41:17;7.40;;;4.05;;
22752;SDS011;11543;43.144;24.684;2023-05-07T06:43:48;5.45;;;3.63;;
22752;SDS011;11543;43.144;24.684;2023-05-07T06:47:10;5.93;;;3.70;;
22752;SDS011;11543;43.144;24.684;2023-05-07T06:53:30;4.65;;;3.58;;
22752;SDS011;11543;43.144;24.684;2023-05-07T06:56:25;15.65;;;3.47;;
22752;SDS011;11543;43.144;24.684;2023-05-07T07:09:49;5.93;;;2.95;;
22752;SDS011;11543;43.144;24.684;2023-05-07T07:12:22;6.93;;;3.08;;
22752;SDS011;11543;43.144;24.684;2023-05-07T07:15:34;5.93;;;3.10;;
22752;SDS011;11543;43.144;24.684;2023-05-07T07:18:03;4.72;;;2.80;;
22752;SDS011;11543;43.144;24.684;2023-05-07T07:20:38;6.13;;;3.10;;
22752;SDS011;11543;43.144;24.684;2023-05-07T07:23:04;7.47;;;3.10;;
22752;SDS011;11543;43.144;24.684;2023-05-07T07:25:30;7.53;;;3.20;;
22752;SDS011;11543;43.144;24.684;2023-05-07T07:28:01;4.88;;;3.03;;
22752;SDS011;11543;43.144;24.684;2023-05-07T07:30:28;4.22;;;3.08;;
22752;SDS011;11543;43.144;24.684;2023-05-07T07:32:57;5.78;;;3.10;;
22752;SDS011;11543;43.144;24.684;2023-05-07T07:35:37;5.47;;;2.60;;
22752;SDS011;11543;43.144;24.684;2023-05-07T07:38:02;5.32;;;2.50;;
22752;SDS011;11543;43.144;24.684;2023-05-07T07:40:28;6.68;;;2.75;;
22752;SDS011;11543;43.144;24.684;2023-05-07T07:42:54;4.93;;;2.42;;
22752;SDS011;11543;43.144;24.684;2023-05-07T07:45:20;12.57;;;2.55;;
22752;SDS011;11543;43.144;24.684;2023-05-07T07:47:45;6.15;;;2.50;;
22752;SDS011;11543;43.144;24.684;2023-05-07T07:50:11;6.60;;;2.30;;
22752;SDS011;11543;43.144;24.684;2023-05-07T07:52:37;5.80;;;2.20;;
22752;SDS011;11543;43.144;24.684;2023-05-07T07:55:03;7.35;;;1.98;;
22752;SDS011;11543;43.144;24.684;2023-05-07T07:57:29;4.35;;;2.13;;
22752;SDS011;11543;43.144;24.684;2023-05-07T07:59:55;4.75;;;2.28;;
22752;SDS011;11543;43.144;24.684;2023-05-07T08:02:21;4.63;;;1.90;;
22752;SDS011;11543;43.144;24.684;2023-05-07T08:04:46;5.93;;;2.20;;
22752;SDS011;11543;43.144;24.684;2023-05-07T08:07:12;6.72;;;1.77;;
22752;SDS011;11543;43.144;24.684;2023-05-07T08:09:41;3.38;;;1.85;;
22752;SDS011;11543;43.144;24.684;2023-05-07T08:12:06;4.30;;;1.45;;
22752;SDS011;11543;43.144;24.684;2023-05-07T08:14:33;3.45;;;1.42;;
22752;SDS011;11543;43.144;24.684;2023-05-07T08:16:59;3.75;;;1.38;;
22752;SDS011;11543;43.144;24.684;2023-05-07T08:19:25;3.17;;;1.63;;
22752;SDS011;11543;43.144;24.684;2023-05-07T08:21:51;5.00;;;1.70;;
22752;SDS011;11543;43.144;24.684;2023-05-07T08:24:17;4.65;;;1.23;;
22752;SDS011;11543;43.144;24.684;2023-05-07T08:26:44;2.60;;;1.30;;
22752;SDS011;11543;43.144;24.684;2023-05-07T08:29:15;2.15;;;1.20;;
22752;SDS011;11543;43.144;24.684;2023-05-07T08:31:41;1.88;;;1.10;;
22752;SDS011;11543;43.144;24.684;2023-05-07T08:34:07;3.78;;;1.38;;
22752;SDS011;11543;43.144;24.684;2023-05-07T08:36:33;1.70;;;1.05;;
22752;SDS011;11543;43.144;24.684;2023-05-07T08:38:59;2.72;;;1.08;;
22752;SDS011;11543;43.144;24.684;2023-05-07T08:41:25;5.97;;;1.30;;
22752;SDS011;11543;43.144;24.684;2023-05-07T08:43:50;7.30;;;1.17;;
22752;SDS011;11543;43.144;24.684;2023-05-07T08:46:17;3.08;;;1.00;;
22752;SDS011;11543;43.144;24.684;2023-05-07T08:52:13;2.83;;;1.08;;
22752;SDS011;11543;43.144;24.684;2023-05-07T08:54:44;4.47;;;1.08;;
22752;SDS011;11543;43.144;24.684;2023-05-07T08:57:10;2.28;;;1.00;;
22752;SDS011;11543;43.144;24.684;2023-05-07T08:59:35;2.85;;;1.10;;
22752;SDS011;11543;43.144;24.684;2023-05-07T09:02:02;2.63;;;0.80;;
22752;SDS011;11543;43.144;24.684;2023-05-07T09:04:27;4.45;;;1.00;;
22752;SDS011;11543;43.144;24.684;2023-05-07T09:06:53;2.20;;;0.90;;
22752;SDS011;11543;43.144;24.684;2023-05-07T09:09:18;3.50;;;0.80;;
22752;SDS011;11543;43.144;24.684;2023-05-07T09:12:07;4.35;;;1.00;;
22752;SDS011;11543;43.144;24.684;2023-05-07T09:14:54;3.17;;;1.17;;
22752;SDS011;11543;43.144;24.684;2023-05-07T09:20:25;1.70;;;0.82;;
22752;SDS011;11543;43.144;24.684;2023-05-07T09:22:51;4.90;;;1.08;;
22752;SDS011;11543;43.144;24.684;2023-05-07T09:25:27;3.90;;;1.00;;
22752;SDS011;11543;43.144;24.684;2023-05-07T09:28:21;4.18;;;1.00;;
22752;SDS011;11543;43.144;24.684;2023-05-07T09:30:46;6.65;;;1.00;;
22752;SDS011;11543;43.144;24.684;2023-05-07T09:33:41;3.88;;;1.10;;
22752;SDS011;11543;43.144;24.684;2023-05-07T09:36:07;3.63;;;1.20;;
22752;SDS011;11543;43.144;24.684;2023-05-07T09:38:38;3.33;;;1.33;;
22752;SDS011;11543;43.144;24.684;2023-05-07T09:41:10;2.90;;;1.00;;
22752;SDS011;11543;43.144;24.684;2023-05-07T09:47:33;2.03;;;0.90;;
22752;SDS011;11543;43.144;24.684;2023-05-07T09:50:03;3.03;;;1.08;;
22752;SDS011;11543;43.144;24.684;2023-05-07T09:52:33;4.05;;;0.90;;
22752;SDS011;11543;43.144;24.684;2023-05-07T09:55:00;2.38;;;0.80;;
22752;SDS011;11543;43.144;24.684;2023-05-07T09:57:27;1.77;;;0.85;;
22752;SDS011;11543;43.144;24.684;2023-05-07T09:59:54;5.25;;;0.80;;
22752;SDS011;11543;43.144;24.684;2023-05-07T10:02:22;2.90;;;0.93;;
22752;SDS011;11543;43.144;24.684;2023-05-07T10:04:59;3.35;;;1.00;;
22752;SDS011;11543;43.144;24.684;2023-05-07T10:10:40;2.40;;;0.80;;
22752;SDS011;11543;43.144;24.684;2023-05-07T10:13:08;13.30;;;1.00;;
22752;SDS011;11543;43.144;24.684;2023-05-07T10:15:36;2.55;;;0.95;;
22752;SDS011;11543;43.144;24.684;2023-05-07T10:18:03;2.05;;;0.90;;
22752;SDS011;11543;43.144;24.684;2023-05-07T10:23:35;1.77;;;0.90;;
22752;SDS011;11543;43.144;24.684;2023-05-07T10:26:05;2.65;;;1.20;;
22752;SDS011;11543;43.144;24.684;2023-05-07T10:34:11;4.30;;;1.20;;
22752;SDS011;11543;43.144;24.684;2023-05-07T10:36:41;2.25;;;1.30;;
22752;SDS011;11543;43.144;24.684;2023-05-07T10:39:07;5.32;;;1.40;;
22752;SDS011;11543;43.144;24.684;2023-05-07T10:41:33;2.17;;;1.10;;
22752;SDS011;11543;43.144;24.684;2023-05-07T10:43:58;4.25;;;1.33;;
22752;SDS011;11543;43.144;24.684;2023-05-07T10:46:27;3.17;;;1.15;;
22752;SDS011;11543;43.144;24.684;2023-05-07T10:51:36;3.22;;;1.20;;
22752;SDS011;11543;43.144;24.684;2023-05-07T10:56:40;5.00;;;1.48;;
22752;SDS011;11543;43.144;24.684;2023-05-07T10:59:53;2.67;;;1.05;;
22752;SDS011;11543;43.144;24.684;2023-05-07T11:02:05;2.50;;;1.23;;
22752;SDS011;11543;43.144;24.684;2023-05-07T11:04:33;2.42;;;1.30;;
22752;SDS011;11543;43.144;24.684;2023-05-07T11:07:25;3.33;;;1.25;;
22752;SDS011;11543;43.144;24.684;2023-05-07T11:15:03;4.50;;;1.40;;
22752;SDS011;11543;43.144;24.684;2023-05-07T11:17:33;1.85;;;1.08;;
22752;SDS011;11543;43.144;24.684;2023-05-07T11:20:02;2.50;;;1.20;;
22752;SDS011;11543;43.144;24.684;2023-05-07T11:24:55;2.72;;;1.10;;
22752;SDS011;11543;43.144;24.684;2023-05-07T11:27:25;3.75;;;1.27;;
22752;SDS011;11543;43.144;24.684;2023-05-07T11:29:52;3.10;;;1.30;;
22752;SDS011;11543;43.144;24.684;2023-05-07T11:32:24;3.78;;;1.50;;
22752;SDS011;11543;43.144;24.684;2023-05-07T11:34:52;4.70;;;1.17;;
22752;SDS011;11543;43.144;24.684;2023-05-07T11:37:18;3.10;;;1.35;;
22752;SDS011;11543;43.144;24.684;2023-05-07T11:39:46;2.92;;;1.20;;
22752;SDS011;11543;43.144;24.684;2023-05-07T11:44:52;3.25;;;1.10;;
22752;SDS011;11543;43.144;24.684;2023-05-07T11:47:18;1.42;;;1.00;;
22752;SDS011;11543;43.144;24.684;2023-05-07T11:49:48;1.45;;;1.10;;
22752;SDS011;11543;43.144;24.684;2023-05-07T11:52:15;3.10;;;1.33;;
22752;SDS011;11543;43.144;24.684;2023-05-07T11:54:49;2.17;;;1.10;;
22752;SDS011;11543;43.144;24.684;2023-05-07T11:57:19;2.13;;;1.20;;
22752;SDS011;11543;43.144;24.684;2023-05-07T12:05:15;2.05;;;1.10;;
22752;SDS011;11543;43.144;24.684;2023-05-07T12:37:37;4.43;;;1.27;;
22752;SDS011;11543;43.144;24.684;2023-05-07T12:40:07;2.40;;;1.20;;
22752;SDS011;11543;43.144;24.684;2023-05-07T12:42:38;3.10;;;0.93;;
22752;SDS011;11543;43.144;24.684;2023-05-07T12:45:11;4.10;;;1.00;;
22752;SDS011;11543;43.144;24.684;2023-05-07T12:47:38;3.28;;;1.33;;
22752;SDS011;11543;43.144;24.684;2023-05-07T12:50:05;2.45;;;1.02;;
22752;SDS011;11543;43.144;24.684;2023-05-07T12:52:32;2.10;;;1.23;;
22752;SDS011;11543;43.144;24.684;2023-05-07T12:55:05;3.75;;;1.10;;
22752;SDS011;11543;43.144;24.684;2023-05-07T12:57:39;3.67;;;1.20;;
22752;SDS011;11543;43.144;24.684;2023-05-07T13:00:09;2.78;;;1.10;;
22752;SDS011;11543;43.144;24.684;2023-05-07T13:02:38;4.65;;;1.40;;
22752;SDS011;11543;43.144;24.684;2023-05-07T13:05:05;1.73;;;1.20;;
22752;SDS011;11543;43.144;24.684;2023-05-07T13:07:32;4.13;;;1.30;;
22752;SDS011;11543;43.144;24.684;2023-05-07T13:09:57;4.97;;;1.17;;
22752;SDS011;11543;43.144;24.684;2023-05-07T13:12:23;5.20;;;2.45;;
22752;SDS011;11543;43.144;24.684;2023-05-07T13:14:49;6.10;;;2.15;;
22752;SDS011;11543;43.144;24.684;2023-05-07T13:17:17;5.07;;;2.25;;
22752;SDS011;11543;43.144;24.684;2023-05-07T13:19:44;9.18;;;2.15;;
22752;SDS011;11543;43.144;24.684;2023-05-07T13:22:10;2.72;;;1.20;;
22752;SDS011;11543;43.144;24.684;2023-05-07T13:24:36;2.03;;;1.15;;
22752;SDS011;11543;43.144;24.684;2023-05-07T13:27:02;5.55;;;1.40;;
22752;SDS011;11543;43.144;24.684;2023-05-07T13:29:29;4.20;;;1.33;;
22752;SDS011;11543;43.144;24.684;2023-05-07T13:31:55;3.00;;;1.35;;
22752;SDS011;11543;43.144;24.684;2023-05-07T13:34:21;2.85;;;1.00;;
22752;SDS011;11543;43.144;24.684;2023-05-07T13:36:47;3.45;;;1.38;;
22752;SDS011;11543;43.144;24.684;2023-05-07T13:39:13;4.72;;;1.10;;
22752;SDS011;11543;43.144;24.684;2023-05-07T13:41:39;2.25;;;1.25;;
22752;SDS011;11543;43.144;24.684;2023-05-07T13:44:05;3.78;;;1.25;;
22752;SDS011;11543;43.144;24.684;2023-05-07T13:46:30;4.30;;;1.15;;
22752;SDS011;11543;43.144;24.684;2023-05-07T13:48:56;3.08;;;1.20;;
22752;SDS011;11543;43.144;24.684;2023-05-07T13:51:23;3.25;;;1.40;;
22752;SDS011;11543;43.144;24.684;2023-05-07T13:53:52;3.75;;;1.20;;
22752;SDS011;11543;43.144;24.684;2023-05-07T13:59:22;2.00;;;1.13;;
22752;SDS011;11543;43.144;24.684;2023-05-07T14:01:53;5.28;;;1.20;;
22752;SDS011;11543;43.144;24.684;2023-05-07T14:04:19;3.63;;;1.10;;
22752;SDS011;11543;43.144;24.684;2023-05-07T14:07:06;4.22;;;1.40;;
22752;SDS011;11543;43.144;24.684;2023-05-07T14:09:32;2.67;;;1.40;;
22752;SDS011;11543;43.144;24.684;2023-05-07T14:14:46;3.50;;;1.40;;
22752;SDS011;11543;43.144;24.684;2023-05-07T14:17:17;3.15;;;1.20;;
22752;SDS011;11543;43.144;24.684;2023-05-07T14:19:43;2.20;;;1.00;;
22752;SDS011;11543;43.144;24.684;2023-05-07T14:22:13;5.40;;;1.27;;
22752;SDS011;11543;43.144;24.684;2023-05-07T14:24:40;4.07;;;1.20;;
22752;SDS011;11543;43.144;24.684;2023-05-07T14:27:06;1.88;;;1.10;;
22752;SDS011;11543;43.144;24.684;2023-05-07T14:29:32;1.85;;;1.10;;
22752;SDS011;11543;43.144;24.684;2023-05-07T14:32:00;3.45;;;1.13;;
22752;SDS011;11543;43.144;24.684;2023-05-07T14:34:26;2.13;;;1.15;;
22752;SDS011;11543;43.144;24.684;2023-05-07T14:36:51;3.03;;;1.40;;
22752;SDS011;11543;43.144;24.684;2023-05-07T14:39:17;4.10;;;1.13;;
22752;SDS011;11543;43.144;24.684;2023-05-07T14:41:43;2.88;;;1.17;;
22752;SDS011;11543;43.144;24.684;2023-05-07T14:44:08;2.33;;;1.10;;
22752;SDS011;11543;43.144;24.684;2023-05-07T14:46:34;5.70;;;1.30;;
22752;SDS011;11543;43.144;24.684;2023-05-07T14:49:01;3.35;;;1.20;;
22752;SDS011;11543;43.144;24.684;2023-05-07T14:51:28;3.80;;;1.25;;
22752;SDS011;11543;43.144;24.684;2023-05-07T14:53:54;2.65;;;1.10;;
22752;SDS011;11543;43.144;24.684;2023-05-07T14:56:19;2.00;;;1.23;;
22752;SDS011;11543;43.144;24.684;2023-05-07T14:58:46;2.03;;;1.20;;
22752;SDS011;11543;43.144;24.684;2023-05-07T15:01:13;1.95;;;1.30;;
22752;SDS011;11543;43.144;24.684;2023-05-07T15:03:39;4.18;;;1.23;;
22752;SDS011;11543;43.144;24.684;2023-05-07T15:06:05;2.60;;;1.05;;
22752;SDS011;11543;43.144;24.684;2023-05-07T15:08:30;4.50;;;1.27;;
22752;SDS011;11543;43.144;24.684;2023-05-07T15:10:56;2.70;;;1.05;;
22752;SDS011;11543;43.144;24.684;2023-05-07T15:13:22;3.13;;;1.20;;
22752;SDS011;11543;43.144;24.684;2023-05-07T15:15:48;3.80;;;1.42;;
22752;SDS011;11543;43.144;24.684;2023-05-07T15:18:14;3.35;;;1.30;;
22752;SDS011;11543;43.144;24.684;2023-05-07T15:20:40;4.90;;;1.35;;
22752;SDS011;11543;43.144;24.684;2023-05-07T15:23:07;3.47;;;1.27;;
22752;SDS011;11543;43.144;24.684;2023-05-07T15:25:37;3.45;;;1.50;;
22752;SDS011;11543;43.144;24.684;2023-05-07T15:28:03;3.42;;;1.30;;
22752;SDS011;11543;43.144;24.684;2023-05-07T15:30:29;4.13;;;1.33;;
22752;SDS011;11543;43.144;24.684;2023-05-07T15:32:55;3.30;;;1.30;;
22752;SDS011;11543;43.144;24.684;2023-05-07T15:35:23;3.38;;;1.20;;
22752;SDS011;11543;43.144;24.684;2023-05-07T15:37:50;2.78;;;1.13;;
22752;SDS011;11543;43.144;24.684;2023-05-07T15:40:16;2.30;;;1.20;;
22752;SDS011;11543;43.144;24.684;2023-05-07T15:42:47;4.38;;;1.40;;
22752;SDS011;11543;43.144;24.684;2023-05-07T15:45:13;3.08;;;1.38;;
22752;SDS011;11543;43.144;24.684;2023-05-07T15:47:38;3.20;;;1.65;;
22752;SDS011;11543;43.144;24.684;2023-05-07T15:50:04;5.97;;;1.50;;
22752;SDS011;11543;43.144;24.684;2023-05-07T15:52:30;8.15;;;1.77;;
22752;SDS011;11543;43.144;24.684;2023-05-07T15:54:59;3.83;;;1.80;;
22752;SDS011;11543;43.144;24.684;2023-05-07T15:57:27;6.05;;;1.67;;
22752;SDS011;11543;43.144;24.684;2023-05-07T15:59:58;4.70;;;1.77;;
22752;SDS011;11543;43.144;24.684;2023-05-07T16:02:31;4.68;;;2.00;;
22752;SDS011;11543;43.144;24.684;2023-05-07T16:05:01;2.63;;;1.38;;
22752;SDS011;11543;43.144;24.684;2023-05-07T16:07:27;6.78;;;2.70;;
22752;SDS011;11543;43.144;24.684;2023-05-07T16:09:52;4.90;;;2.03;;
22752;SDS011;11543;43.144;24.684;2023-05-07T16:12:18;5.43;;;1.90;;
22752;SDS011;11543;43.144;24.684;2023-05-07T16:14:43;4.47;;;1.65;;
22752;SDS011;11543;43.144;24.684;2023-05-07T16:17:11;3.72;;;1.60;;
22752;SDS011;11543;43.144;24.684;2023-05-07T16:19:37;2.35;;;1.33;;
22752;SDS011;11543;43.144;24.684;2023-05-07T16:22:02;4.10;;;1.38;;
22752;SDS011;11543;43.144;24.684;2023-05-07T16:24:29;2.40;;;1.40;;
22752;SDS011;11543;43.144;24.684;2023-05-07T16:26:56;3.95;;;1.50;;
22752;SDS011;11543;43.144;24.684;2023-05-07T16:29:22;3.47;;;1.35;;
22752;SDS011;11543;43.144;24.684;2023-05-07T16:31:47;6.78;;;1.77;;
22752;SDS011;11543;43.144;24.684;2023-05-07T16:34:17;4.30;;;1.58;;
22752;SDS011;11543;43.144;24.684;2023-05-07T16:36:46;3.47;;;1.50;;
22752;SDS011;11543;43.144;24.684;2023-05-07T16:39:12;3.53;;;1.30;;
22752;SDS011;11543;43.144;24.684;2023-05-07T16:41:37;6.35;;;1.60;;
22752;SDS011;11543;43.144;24.684;2023-05-07T16:44:03;7.15;;;1.60;;
22752;SDS011;11543;43.144;24.684;2023-05-07T16:50:07;8.35;;;1.40;;
22752;SDS011;11543;43.144;24.684;2023-05-07T16:52:33;3.08;;;1.67;;
22752;SDS011;11543;43.144;24.684;2023-05-07T16:55:00;4.30;;;1.70;;
22752;SDS011;11543;43.144;24.684;2023-05-07T16:57:26;4.53;;;1.80;;
22752;SDS011;11543;43.144;24.684;2023-05-07T17:02:49;3.85;;;1.27;;
22752;SDS011;11543;43.144;24.684;2023-05-07T17:05:38;3.65;;;1.50;;
22752;SDS011;11543;43.144;24.684;2023-05-07T18:28:33;3.97;;;2.15;;
22752;SDS011;11543;43.144;24.684;2023-05-07T18:30:59;4.32;;;2.35;;
22752;SDS011;11543;43.144;24.684;2023-05-07T18:33:24;5.95;;;2.40;;
22752;SDS011;11543;43.144;24.684;2023-05-07T18:35:50;10.35;;;4.68;;
22752;SDS011;11543;43.144;24.684;2023-05-07T18:38:17;13.18;;;5.00;;
22752;SDS011;11543;43.144;24.684;2023-05-07T18:40:46;5.88;;;2.67;;
22752;SDS011;11543;43.144;24.684;2023-05-07T18:43:20;8.65;;;2.63;;
22752;SDS011;11543;43.144;24.684;2023-05-07T18:45:57;5.15;;;2.10;;
22752;SDS011;11543;43.144;24.684;2023-05-07T18:48:25;4.47;;;1.73;;
22752;SDS011;11543;43.144;24.684;2023-05-07T18:50:51;3.67;;;2.15;;
22752;SDS011;11543;43.144;24.684;2023-05-07T18:53:19;5.05;;;2.22;;
22752;SDS011;11543;43.144;24.684;2023-05-07T18:55:52;5.28;;;2.03;;
22752;SDS011;11543;43.144;24.684;2023-05-07T19:00:47;6.00;;;2.60;;
22752;SDS011;11543;43.144;24.684;2023-05-07T19:03:13;3.90;;;2.70;;
22752;SDS011;11543;43.144;24.684;2023-05-07T19:05:43;5.80;;;2.55;;
22752;SDS011;11543;43.144;24.684;2023-05-07T19:08:09;5.65;;;2.90;;
22752;SDS011;11543;43.144;24.684;2023-05-07T19:10:35;4.63;;;2.97;;
22752;SDS011;11543;43.144;24.684;2023-05-07T19:13:01;3.85;;;2.65;;
22752;SDS011;11543;43.144;24.684;2023-05-07T19:15:27;7.25;;;3.08;;
22752;SDS011;11543;43.144;24.684;2023-05-07T19:17:52;4.97;;;3.47;;
22752;SDS011;11543;43.144;24.684;2023-05-07T19:20:18;6.50;;;3.13;;
22752;SDS011;11543;43.144;24.684;2023-05-07T19:22:44;4.97;;;2.95;;
22752;SDS011;11543;43.144;24.684;2023-05-07T19:25:11;4.55;;;3.03;;
22752;SDS011;11543;43.144;24.684;2023-05-07T19:27:37;6.20;;;3.05;;
22752;SDS011;11543;43.144;24.684;2023-05-07T19:30:03;5.70;;;2.95;;
22752;SDS011;11543;43.144;24.684;2023-05-07T19:32:29;5.07;;;2.85;;
22752;SDS011;11543;43.144;24.684;2023-05-07T19:34:55;7.07;;;4.18;;
22752;SDS011;11543;43.144;24.684;2023-05-07T19:37:21;7.53;;;3.92;;
22752;SDS011;11543;43.144;24.684;2023-05-07T19:39:49;6.60;;;3.78;;
22752;SDS011;11543;43.144;24.684;2023-05-07T19:42:15;6.95;;;3.40;;
22752;SDS011;11543;43.144;24.684;2023-05-07T19:44:40;5.68;;;3.55;;
22752;SDS011;11543;43.144;24.684;2023-05-07T19:47:06;6.32;;;3.75;;
22752;SDS011;11543;43.144;24.684;2023-05-07T19:49:33;6.68;;;3.22;;
22752;SDS011;11543;43.144;24.684;2023-05-07T19:51:58;8.30;;;3.20;;
22752;SDS011;11543;43.144;24.684;2023-05-07T19:54:24;8.25;;;4.20;;
22752;SDS011;11543;43.144;24.684;2023-05-07T19:56:49;9.07;;;3.97;;
22752;SDS011;11543;43.144;24.684;2023-05-07T19:59:15;8.02;;;4.20;;
22752;SDS011;11543;43.144;24.684;2023-05-07T20:01:41;6.55;;;3.53;;
22752;SDS011;11543;43.144;24.684;2023-05-07T20:04:07;5.22;;;3.15;;
22752;SDS011;11543;43.144;24.684;2023-05-07T20:06:32;5.38;;;3.03;;
22752;SDS011;11543;43.144;24.684;2023-05-07T20:08:58;10.05;;;3.65;;
22752;SDS011;11543;43.144;24.684;2023-05-07T20:11:23;6.78;;;3.67;;
22752;SDS011;11543;43.144;24.684;2023-05-07T20:13:49;8.23;;;3.50;;
22752;SDS011;11543;43.144;24.684;2023-05-07T20:16:15;5.90;;;3.67;;
22752;SDS011;11543;43.144;24.684;2023-05-07T20:18:40;10.65;;;4.60;;
22752;SDS011;11543;43.144;24.684;2023-05-07T20:21:06;8.45;;;4.65;;
22752;SDS011;11543;43.144;24.684;2023-05-07T20:23:32;6.97;;;4.38;;
22752;SDS011;11543;43.144;24.684;2023-05-07T20:25:57;7.03;;;3.70;;
22752;SDS011;11543;43.144;24.684;2023-05-07T20:28:23;9.57;;;4.30;;
22752;SDS011;11543;43.144;24.684;2023-05-07T20:30:49;6.57;;;4.20;;
22752;SDS011;11543;43.144;24.684;2023-05-07T20:33:15;7.75;;;3.92;;
22752;SDS011;11543;43.144;24.684;2023-05-07T20:35:41;5.32;;;3.80;;
22752;SDS011;11543;43.144;24.684;2023-05-07T20:38:06;8.27;;;3.75;;
22752;SDS011;11543;43.144;24.684;2023-05-07T20:40:32;6.95;;;3.92;;
22752;SDS011;11543;43.144;24.684;2023-05-07T20:43:01;14.80;;;4.80;;
22752;SDS011;11543;43.144;24.684;2023-05-07T20:45:27;8.73;;;3.83;;
22752;SDS011;11543;43.144;24.684;2023-05-07T20:47:53;9.63;;;3.92;;
22752;SDS011;11543;43.144;24.684;2023-05-07T20:50:23;6.13;;;3.85;;
22752;SDS011;11543;43.144;24.684;2023-05-07T20:52:50;8.13;;;4.22;;
22752;SDS011;11543;43.144;24.684;2023-05-07T20:55:15;6.57;;;3.50;;
22752;SDS011;11543;43.144;24.684;2023-05-07T20:57:41;7.45;;;3.53;;
22752;SDS011;11543;43.144;24.684;2023-05-07T21:00:06;6.25;;;3.60;;
22752;SDS011;11543;43.144;24.684;2023-05-07T21:02:34;8.45;;;2.95;;
22752;SDS011;11543;43.144;24.684;2023-05-07T21:05:01;7.60;;;2.88;;
22752;SDS011;11543;43.144;24.684;2023-05-07T21:07:26;3.53;;;2.63;;
22752;SDS011;11543;43.144;24.684;2023-05-07T21:09:52;6.13;;;2.58;;
22752;SDS011;11543;43.144;24.684;2023-05-07T21:12:17;3.95;;;2.40;;
22752;SDS011;11543;43.144;24.684;2023-05-07T21:14:43;3.67;;;2.30;;
22752;SDS011;11543;43.144;24.684;2023-05-07T21:17:08;2.90;;;2.20;;
22752;SDS011;11543;43.144;24.684;2023-05-07T21:19:35;3.63;;;2.13;;
22752;SDS011;11543;43.144;24.684;2023-05-07T21:22:00;5.30;;;2.10;;
22752;SDS011;11543;43.144;24.684;2023-05-07T21:24:26;4.60;;;2.60;;
22752;SDS011;11543;43.144;24.684;2023-05-07T21:26:54;7.63;;;2.25;;
22752;SDS011;11543;43.144;24.684;2023-05-07T21:29:20;4.22;;;2.50;;
22752;SDS011;11543;43.144;24.684;2023-05-07T21:31:46;3.90;;;2.53;;
22752;SDS011;11543;43.144;24.684;2023-05-07T21:34:12;4.05;;;2.25;;
22752;SDS011;11543;43.144;24.684;2023-05-07T21:36:39;6.25;;;2.47;;
22752;SDS011;11543;43.144;24.684;2023-05-07T21:39:05;6.22;;;2.85;;
22752;SDS011;11543;43.144;24.684;2023-05-07T21:41:33;4.32;;;2.83;;
22752;SDS011;11543;43.144;24.684;2023-05-07T21:44:01;3.75;;;2.50;;
22752;SDS011;11543;43.144;24.684;2023-05-07T21:46:27;4.80;;;2.70;;
22752;SDS011;11543;43.144;24.684;2023-05-07T21:48:59;5.82;;;2.70;;
22752;SDS011;11543;43.144;24.684;2023-05-07T21:55:37;2.95;;;2.50;;
22752;SDS011;11543;43.144;24.684;2023-05-07T21:58:52;6.28;;;2.72;;
22752;SDS011;11543;43.144;24.684;2023-05-07T22:01:18;6.70;;;2.78;;
22752;SDS011;11543;43.144;24.684;2023-05-07T22:03:44;5.53;;;2.47;;
22752;SDS011;11543;43.144;24.684;2023-05-07T22:06:10;5.13;;;2.80;;
22752;SDS011;11543;43.144;24.684;2023-05-07T22:08:36;4.28;;;2.78;;
22752;SDS011;11543;43.144;24.684;2023-05-07T22:11:02;5.43;;;2.92;;
22752;SDS011;11543;43.144;24.684;2023-05-07T22:13:28;5.75;;;3.00;;
22752;SDS011;11543;43.144;24.684;2023-05-07T22:15:53;6.32;;;2.50;;
22752;SDS011;11543;43.144;24.684;2023-05-07T22:18:20;9.35;;;2.72;;
22752;SDS011;11543;43.144;24.684;2023-05-07T22:20:49;5.07;;;2.47;;
22752;SDS011;11543;43.144;24.684;2023-05-07T22:23:15;5.07;;;2.30;;
22752;SDS011;11543;43.144;24.684;2023-05-07T22:25:40;3.47;;;2.60;;
22752;SDS011;11543;43.144;24.684;2023-05-07T22:28:06;7.28;;;2.50;;
22752;SDS011;11543;43.144;24.684;2023-05-07T22:30:32;6.00;;;2.75;;
22752;SDS011;11543;43.144;24.684;2023-05-07T22:33:02;3.78;;;2.45;;
22752;SDS011;11543;43.144;24.684;2023-05-07T22:35:29;5.63;;;2.60;;
22752;SDS011;11543;43.144;24.684;2023-05-07T22:37:55;5.70;;;2.80;;
22752;SDS011;11543;43.144;24.684;2023-05-07T22:40:20;4.22;;;2.63;;
22752;SDS011;11543;43.144;24.684;2023-05-07T22:42:46;5.53;;;2.50;;
22752;SDS011;11543;43.144;24.684;2023-05-07T22:45:11;5.95;;;2.50;;
22752;SDS011;11543;43.144;24.684;2023-05-07T22:47:37;5.07;;;2.47;;
22752;SDS011;11543;43.144;24.684;2023-05-07T22:50:04;4.10;;;2.67;;
22752;SDS011;11543;43.144;24.684;2023-05-07T22:52:31;4.50;;;2.13;;
22752;SDS011;11543;43.144;24.684;2023-05-07T22:54:57;6.20;;;2.40;;
22752;SDS011;11543;43.144;24.684;2023-05-07T22:57:23;5.43;;;2.17;;
22752;SDS011;11543;43.144;24.684;2023-05-07T22:59:54;4.32;;;2.28;;
22752;SDS011;11543;43.144;24.684;2023-05-07T23:02:20;6.55;;;2.80;;
22752;SDS011;11543;43.144;24.684;2023-05-07T23:04:47;6.57;;;3.00;;
22752;SDS011;11543;43.144;24.684;2023-05-07T23:07:13;3.72;;;2.38;;
22752;SDS011;11543;43.144;24.684;2023-05-07T23:09:39;4.63;;;2.50;;
22752;SDS011;11543;43.144;24.684;2023-05-07T23:12:05;6.35;;;2.40;;
22752;SDS011;11543;43.144;24.684;2023-05-07T23:14:30;5.50;;;2.60;;
22752;SDS011;11543;43.144;24.684;2023-05-07T23:16:57;6.65;;;2.83;;
22752;SDS011;11543;43.144;24.684;2023-05-07T23:40:35;4.72;;;2.70;;
22752;SDS011;11543;43.144;24.684;2023-05-07T23:43:01;5.15;;;2.78;;
22752;SDS011;11543;43.144;24.684;2023-05-07T23:45:27;5.57;;;2.90;;
22752;SDS011;11543;43.144;24.684;2023-05-07T23:47:52;4.32;;;2.67;;
22752;SDS011;11543;43.144;24.684;2023-05-07T23:50:18;7.72;;;2.40;;
22752;SDS011;11543;43.144;24.684;2023-05-07T23:52:43;5.32;;;2.80;;
22752;SDS011;11543;43.144;24.684;2023-05-07T23:55:09;4.18;;;2.47;;
22752;SDS011;11543;43.144;24.684;2023-05-07T23:57:34;5.95;;;2.60;;
